.
WxDataArchive / Data Records for 2011-08-07
2011-08-06 August 2011 2011-08-08

Data Records for Sunday, 07 August 2011

Time	Temp	Chill	HIndex	Humid	Dewpt	 Wind 	HiWind	WindDir	Rain 	Barom 
-----	----	-----	------	-----	-----	------	------	-------	-----	----- 
00:00	74.0	74.0	74.0	95	72.5	0	0	---	0.00	29.747 
00:05	74.0	74.0	74.0	95	72.5	0	0	---	0.00	29.747 
00:10	74.0	74.0	74.0	95	72.5	0	0	---	0.00	29.747 
00:15	74.0	74.0	74.0	95	72.5	0	0	---	0.00	29.752 
00:20	74.0	74.0	74.0	95	72.5	0	0	---	0.00	29.752 
00:25	74.0	74.0	74.0	95	72.5	0	0	---	0.00	29.752 
00:30	74.0	74.0	74.0	95	72.5	0	0	---	0.00	29.752 
00:35	74.0	74.0	74.0	95	72.5	0	0	---	0.00	29.752 
00:40	74.0	74.0	74.0	95	72.5	0	0	---	0.00	29.752 
00:45	73.9	73.9	73.9	95	72.4	0	0	---	0.00	29.749 
00:50	73.9	73.9	73.9	95	72.4	0	0	---	0.00	29.749 
00:55	73.7	73.7	73.7	95	72.2	0	0	---	0.00	29.749 
01:00	73.7	73.7	73.7	95	72.2	0	0	---	0.00	29.750 
01:05	73.5	73.5	73.5	95	72.0	0	0	---	0.00	29.750 
01:10	73.5	73.5	73.5	95	72.0	0	0	---	0.00	29.750 
01:15	73.3	73.3	73.3	95	71.8	0	0	---	0.00	29.751 
01:20	73.3	73.3	73.3	95	71.8	0	0	---	0.00	29.751 
01:25	73.2	73.2	73.2	95	71.7	0	0	---	0.00	29.751 
01:30	73.2	73.2	73.2	95	71.7	0	0	---	0.00	29.752 
01:35	73.0	73.0	73.0	95	71.5	0	0	---	0.00	29.752 
01:40	73.0	73.0	73.0	95	71.5	0	0	---	0.00	29.752 
01:45	73.0	73.0	73.0	95	71.5	0	0	---	0.00	29.751 
01:50	73.0	73.0	73.0	95	71.5	0	0	---	0.00	29.751 
01:55	73.0	73.0	73.0	96	71.8	0	0	---	0.00	29.751 
02:00	73.0	73.0	73.0	96	71.8	0	0	---	0.00	29.749 
02:05	73.0	73.0	73.0	95	71.5	0	0	---	0.00	29.749 
02:10	73.0	73.0	73.0	96	71.8	0	0	---	0.00	29.749 
02:15	73.0	73.0	73.0	96	71.8	0	0	---	0.00	29.746 
02:20	73.0	73.0	73.0	96	71.8	0	0	---	0.00	29.746 
02:25	73.0	73.0	73.0	96	71.8	0	0	---	0.00	29.746 
02:30	73.0	73.0	73.0	96	71.8	0	0	---	0.00	29.745 
02:35	73.0	73.0	73.0	96	71.8	0	0	---	0.00	29.745 
02:40	73.0	73.0	73.0	96	71.8	0	0	---	0.00	29.745 
02:45	73.0	73.0	73.0	96	71.8	0	0	---	0.00	29.746 
02:50	73.0	73.0	73.0	96	71.8	0	0	---	0.00	29.746 
02:55	72.8	72.8	72.8	96	71.6	0	0	---	0.00	29.746 
03:00	72.7	72.7	72.7	96	71.5	0	0	---	0.00	29.737 
03:05	72.7	72.7	72.7	96	71.5	0	0	---	0.00	29.737 
03:10	72.7	72.7	72.7	96	71.5	0	0	---	0.00	29.737 
03:15	72.7	72.7	72.7	96	71.5	0	0	---	0.00	29.734 
03:20	72.7	72.7	72.7	96	71.5	0	0	---	0.00	29.734 
03:25	72.5	72.5	72.5	96	71.3	0	0	---	0.00	29.734 
03:30	72.5	72.5	72.5	96	71.3	0	0	---	0.00	29.733 
03:35	72.3	72.3	72.3	96	71.1	0	0	---	0.00	29.733 
03:40	72.3	72.3	72.3	96	71.1	0	0	---	0.00	29.733 
03:45	72.3	72.3	72.3	96	71.1	0	0	---	0.00	29.734 
03:50	72.5	72.5	72.5	96	71.3	0	0	---	0.00	29.734 
03:55	72.5	72.5	72.5	96	71.3	0	0	---	0.00	29.734 
04:00	72.5	72.5	72.5	96	71.3	0	0	---	0.00	29.730 
04:05	72.3	72.3	72.3	96	71.1	0	0	---	0.00	29.730 
04:10	72.3	72.3	72.3	96	71.1	0	0	---	0.00	29.730 
04:15	72.1	72.1	72.1	96	70.9	0	0	---	0.00	29.730 
04:20	72.0	72.0	72.0	96	70.8	0	0	---	0.00	29.730 
04:25	72.1	72.1	72.1	96	70.9	0	0	---	0.00	29.730 
04:30	72.0	72.0	72.0	96	70.8	0	0	---	0.00	29.731 
04:35	72.0	72.0	72.0	96	70.8	0	0	---	0.00	29.731 
04:40	72.0	72.0	72.0	96	70.8	0	0	---	0.00	29.731 
04:45	71.8	71.8	71.8	96	70.6	0	0	---	0.00	29.728 
04:50	71.8	71.8	71.8	96	70.6	0	0	---	0.00	29.728 
04:55	71.6	71.6	71.6	96	70.4	0	1	315	0.00	29.728 
05:00	71.6	71.6	71.6	96	70.4	0	1	315	0.00	29.726 
05:05	71.6	71.6	71.6	96	70.4	0	1	315	0.00	29.726 
05:10	71.5	71.5	71.5	96	70.3	0	1	315	0.00	29.726 
05:15	71.5	71.5	71.5	96	70.3	0	1	315	0.00	29.733 
05:20	71.3	71.3	71.3	96	70.1	0	1	315	0.00	29.733 
05:25	71.3	71.3	71.3	96	70.1	0	0	---	0.00	29.733 
05:30	71.1	71.1	71.1	96	69.9	0	1	315	0.00	29.734 
05:35	71.1	71.1	71.1	96	69.9	0	0	---	0.00	29.734 
05:40	70.9	70.9	70.9	96	69.7	0	0	---	0.00	29.734 
05:45	70.8	70.8	70.8	96	69.6	0	0	---	0.00	29.735 
05:50	70.8	70.8	70.8	96	69.6	0	0	---	0.00	29.735 
05:55	70.6	70.6	70.6	96	69.4	0	0	---	0.00	29.735 
06:00	70.4	70.4	70.4	96	69.2	0	0	---	0.00	29.744 
06:05	70.3	70.3	70.3	96	69.1	0	0	---	0.00	29.744 
06:10	70.3	70.3	70.3	96	69.1	0	0	---	0.00	29.744 
06:15	70.3	70.3	70.3	96	69.1	0	0	---	0.00	29.754 
06:20	70.1	70.1	70.1	96	68.9	0	0	---	0.00	29.754 
06:25	70.1	70.1	70.1	96	68.9	0	0	---	0.00	29.754 
06:30	70.1	70.1	70.1	96	68.9	0	0	---	0.00	29.754 
06:35	69.9	69.9	69.9	96	68.7	0	0	---	0.00	29.754 
06:40	69.9	69.9	69.9	96	68.7	0	0	---	0.00	29.754 
06:45	69.8	69.8	69.8	96	68.6	0	0	---	0.00	29.766 
06:50	69.8	69.8	69.8	96	68.6	0	0	---	0.00	29.766 
06:55	69.8	69.8	69.8	96	68.6	0	1	315	0.00	29.766 
07:00	69.8	69.8	69.8	96	68.6	0	1	315	0.00	29.771 
07:05	69.8	69.8	69.8	96	68.6	0	0	---	0.00	29.771 
07:10	69.8	69.8	69.8	96	68.6	0	0	---	0.00	29.771 
07:15	69.8	69.8	69.8	96	68.6	0	0	---	0.00	29.775 
07:20	69.8	69.8	69.8	96	68.6	0	1	315	0.00	29.775 
07:25	69.8	69.8	69.8	96	68.6	0	1	315	0.00	29.775 
07:30	69.8	69.8	69.8	96	68.6	0	1	315	0.00	29.785 
07:35	69.9	69.9	69.9	96	68.7	0	1	315	0.00	29.785 
07:40	69.9	69.9	69.9	96	68.7	0	1	315	0.00	29.785 
07:45	70.1	70.1	70.1	96	68.9	0	1	315	0.00	29.785 
07:50	70.1	70.1	70.1	96	68.9	1	2	315	0.00	29.785 
07:55	70.3	70.3	70.3	96	69.1	1	2	315	0.00	29.785 
08:00	70.4	70.4	70.4	96	69.2	1	2	315	0.00	29.788 
08:05	70.4	70.4	70.4	96	69.2	1	2	315	0.00	29.788 
08:10	70.6	70.6	70.6	96	69.4	1	2	315	0.00	29.788 
08:15	70.8	70.8	70.8	96	69.6	0	2	315	0.00	29.787 
08:20	70.8	70.8	70.8	96	69.6	0	1	315	0.00	29.787 
08:25	70.9	70.9	70.9	96	69.7	0	3	315	0.00	29.787 
08:30	70.9	70.9	70.9	96	69.7	0	1	315	0.00	29.782 
08:35	71.3	71.3	71.3	96	70.1	0	1	315	0.00	29.782 
08:40	71.1	71.1	71.1	96	69.9	0	1	315	0.00	29.782 
08:45	71.3	71.3	71.3	96	70.1	0	0	---	0.00	29.770 
08:50	71.6	71.6	71.6	96	70.4	0	1	315	0.00	29.770 
08:55	72.0	72.0	72.0	96	70.8	0	0	---	0.00	29.770 
09:00	72.3	72.3	72.3	96	71.1	0	1	315	0.00	29.762 
09:05	73.0	73.0	73.0	95	71.5	0	0	---	0.00	29.762 
09:10	73.3	73.3	73.3	94	71.5	0	0	---	0.00	29.762 
09:15	74.4	74.4	74.4	94	72.6	0	0	---	0.00	29.753 
09:20	74.9	74.9	74.9	92	72.4	0	1	315	0.00	29.753 
09:25	75.8	75.8	75.8	89	72.3	0	0	---	0.00	29.753 
09:30	76.3	76.3	77.1	85	71.4	0	1	315	0.00	29.727 
09:35	77.2	77.2	78.9	81	70.9	0	1	315	0.00	29.727 
09:40	77.9	77.9	80.1	77	70.1	0	1	315	0.00	29.727 
09:45	77.9	77.9	80.0	75	69.3	0	0	---	0.00	29.723 
09:50	77.9	77.9	80.0	76	69.7	0	0	---	0.00	29.723 
09:55	78.1	78.1	80.3	73	68.7	0	1	315	0.00	29.723 
10:00	78.6	78.6	80.8	70	68.0	0	1	315	0.00	29.724 
10:05	79.0	79.0	81.6	73	69.6	0	1	315	0.00	29.724 
10:10	79.6	79.6	82.6	73	70.2	0	2	315	0.00	29.724 
10:15	79.9	79.9	82.9	71	69.6	0	2	315	0.00	29.738 
10:20	80.3	80.3	83.2	68	68.8	0	2	315	0.00	29.738 
10:25	80.3	80.3	82.4	62	66.1	0	2	292	0.01	29.738 
10:30	80.1	80.1	82.3	63	66.3	1	2	292	0.00	29.743 
10:35	79.9	79.9	82.5	67	67.9	0	1	292	0.00	29.743 
10:40	79.8	79.8	82.4	68	68.3	0	2	292	0.00	29.743 
10:45	79.6	79.6	81.9	66	67.2	1	3	292	0.00	29.754 
10:50	79.9	79.9	82.3	66	67.5	1	3	292	0.00	29.754 
10:55	80.5	80.5	83.3	67	68.5	1	4	292	0.00	29.754 
11:00	81.1	81.1	83.8	64	67.7	2	4	292	0.00	29.756 
11:05	81.2	81.2	84.1	65	68.3	2	4	270	0.00	29.756 
11:10	81.8	81.8	84.7	63	67.9	2	5	270	0.00	29.756 
11:15	82.2	82.2	85.3	63	68.3	1	3	270	0.00	29.756 
11:20	82.6	82.6	85.9	63	68.7	2	5	270	0.00	29.756 
11:25	82.8	82.8	86.1	62	68.4	2	4	270	0.00	29.756 
11:30	82.8	82.8	85.6	60	67.5	2	5	270	0.00	29.763 
11:35	82.8	82.8	86.1	62	68.4	2	4	292	0.00	29.763 
11:40	83.0	83.0	85.9	60	67.7	2	5	270	0.00	29.763 
11:45	83.2	83.2	86.0	59	67.4	2	4	270	0.00	29.755 
11:50	83.4	83.4	86.5	60	68.0	1	2	270	0.00	29.755 
11:55	83.4	83.4	86.8	61	68.5	1	4	315	0.00	29.755 
12:00	83.8	83.8	86.7	58	67.4	1	4	270	0.00	29.743 
12:05	84.3	84.3	87.2	57	67.4	1	3	270	0.00	29.743 
12:10	84.5	84.5	87.5	57	67.6	1	4	270	0.00	29.743 
12:15	84.5	84.5	87.5	57	67.6	2	4	270	0.00	29.744 
12:20	85.3	85.3	88.8	57	68.3	0	2	270	0.00	29.744 
12:25	85.9	85.9	88.6	53	66.7	1	3	22	0.00	29.744 
12:30	86.7	86.7	89.9	53	67.5	1	4	270	0.00	29.744 
12:35	86.5	86.5	88.9	51	66.2	2	4	270	0.00	29.744 
12:40	86.7	86.7	88.9	50	65.8	1	4	270	0.00	29.744 
12:45	86.5	86.5	89.3	52	66.7	1	4	270	0.00	29.735 
12:50	85.9	85.9	88.0	51	65.6	2	4	270	0.00	29.735 
12:55	85.7	85.7	88.3	53	66.6	1	3	270	0.00	29.735 
13:00	86.3	86.3	88.9	52	66.6	1	3	270	0.00	29.732 
13:05	87.0	87.0	90.1	52	67.2	1	4	270	0.00	29.732 
13:10	87.0	87.0	89.7	51	66.6	1	3	270	0.00	29.732 
13:15	86.3	86.3	89.3	53	67.1	2	3	270	0.00	29.719 
13:20	86.3	86.3	88.9	52	66.6	2	4	270	0.00	29.719 
13:25	86.3	86.3	89.6	54	67.7	1	3	315	0.00	29.719 
13:30	86.1	86.1	88.6	52	66.4	2	4	292	0.00	29.726 
13:35	85.7	85.7	88.6	54	67.1	2	4	292	0.00	29.726 
13:40	85.3	85.3	87.4	52	65.6	2	5	270	0.00	29.726 
13:45	85.1	85.1	87.4	53	66.0	1	3	270	0.00	29.734 
13:50	84.9	84.9	87.6	55	66.9	2	6	270	0.00	29.734 
13:55	84.5	84.5	87.0	55	66.5	3	5	270	0.00	29.734 
14:00	84.1	84.1	86.2	54	65.6	2	5	315	0.00	29.743 
14:05	84.0	84.0	86.0	54	65.5	3	6	270	0.00	29.743 
14:10	83.6	83.6	85.7	55	65.7	2	4	270	0.00	29.743 
14:15	83.4	83.4	85.6	56	66.0	2	4	270	0.00	29.738 
14:20	83.2	83.2	85.8	58	66.9	1	4	270	0.00	29.738 
14:25	82.4	82.4	85.4	62	68.0	1	4	270	0.00	29.738 
14:30	81.6	81.6	84.9	66	69.1	0	2	270	0.00	29.738 
14:35	80.7	80.7	84.0	69	69.6	0	2	270	0.00	29.738 
14:40	80.1	80.1	83.4	72	70.2	0	2	270	0.01	29.738 
14:45	77.7	77.7	79.7	71	67.5	4	12	270	0.01	29.754 
14:50	74.2	74.2	74.2	77	66.5	4	10	292	0.00	29.754 
14:55	72.7	72.7	72.7	82	66.9	1	4	270	0.01	29.754 
15:00	71.8	71.8	71.8	85	67.0	1	4	315	0.00	29.761 
15:05	71.1	71.1	71.1	86	66.7	1	5	292	0.00	29.761 
15:10	70.9	70.9	70.9	88	67.2	0	3	292	0.00	29.761 
15:15	70.9	70.9	70.9	88	67.2	0	1	292	0.00	29.735 
15:20	71.1	71.1	71.1	89	67.7	0	1	292	0.00	29.735 
15:25	71.3	71.3	71.3	89	67.9	0	2	292	0.00	29.735 
15:30	71.5	71.5	71.5	89	68.1	0	3	315	0.00	29.725 
15:35	72.1	72.1	72.1	89	68.7	0	0	---	0.00	29.725 
15:40	72.1	72.1	72.1	88	68.3	0	1	315	0.00	29.725 
15:45	72.7	72.7	72.7	88	68.9	0	0	---	0.00	29.723 
15:50	73.0	73.0	73.0	86	68.6	0	1	315	0.00	29.723 
15:55	73.3	73.3	73.3	86	68.8	0	1	315	0.00	29.723 
16:00	73.7	73.7	73.7	85	68.9	0	1	315	0.00	29.713 
16:05	74.2	74.2	74.2	84	69.0	0	2	315	0.00	29.713 
16:10	74.7	74.7	74.7	84	69.5	0	1	315	0.00	29.713 
16:15	75.8	75.8	76.3	84	70.6	0	2	22	0.00	29.706 
16:20	76.3	76.3	77.4	81	70.0	1	3	270	0.00	29.706 
16:25	76.8	76.8	78.3	78	69.4	1	3	270	0.00	29.706 
16:30	77.2	77.2	78.9	78	69.8	0	2	270	0.00	29.700 
16:35	77.4	77.4	79.3	78	70.0	0	1	270	0.00	29.700 
16:40	77.9	77.9	80.1	78	70.5	0	3	270	0.00	29.700 
16:45	78.6	78.6	81.2	76	70.4	0	3	112	0.00	29.698 
16:50	78.6	78.6	81.1	75	70.0	0	2	90	0.00	29.698 
16:55	79.0	79.0	82.0	77	71.2	0	2	90	0.00	29.698 
17:00	79.6	79.6	83.0	76	71.3	1	4	90	0.00	29.692 
17:05	80.3	80.3	84.0	74	71.2	0	1	90	0.00	29.692 
17:10	81.1	81.1	85.3	73	71.6	0	3	270	0.00	29.692 
17:15	81.2	81.2	85.0	70	70.5	1	2	270	0.00	29.689 
17:20	81.4	81.4	85.3	70	70.7	1	4	270	0.00	29.689 
17:25	81.6	81.6	85.7	70	70.8	0	2	270	0.00	29.689 
17:30	81.8	81.8	85.9	69	70.6	1	5	270	0.00	29.681 
17:35	82.0	82.0	86.4	70	71.2	0	3	292	0.00	29.681 
17:40	82.0	82.0	86.2	69	70.8	1	3	225	0.00	29.681 
17:45	82.2	82.2	86.8	70	71.4	1	3	270	0.00	29.683 
17:50	82.6	82.6	87.6	70	71.8	1	3	270	0.00	29.683 
17:55	82.6	82.6	87.1	68	70.9	1	4	270	0.00	29.683 
18:00	82.6	82.6	87.1	68	70.9	1	4	270	0.00	29.688 
18:05	82.8	82.8	87.2	67	70.7	1	4	270	0.00	29.688 
18:10	82.6	82.6	87.1	68	70.9	2	5	270	0.00	29.688 
18:15	82.4	82.4	86.5	67	70.3	1	3	270	0.00	29.682 
18:20	82.4	82.4	86.3	66	69.9	1	5	270	0.00	29.682 
18:25	82.4	82.4	86.5	67	70.3	1	3	270	0.00	29.682 
18:30	82.4	82.4	86.3	66	69.9	2	4	270	0.00	29.681 
18:35	82.2	82.2	85.9	66	69.7	2	4	315	0.00	29.681 
18:40	82.2	82.2	85.9	66	69.7	0	2	315	0.00	29.681 
18:45	82.2	82.2	85.9	66	69.7	1	4	315	0.00	29.679 
18:50	82.0	82.0	85.8	67	69.9	1	3	315	0.00	29.679 
18:55	81.6	81.6	85.1	67	69.6	1	3	315	0.00	29.679 
19:00	81.8	81.8	85.7	68	70.2	1	4	270	0.00	29.690 
19:05	82.2	82.2	86.4	68	70.6	1	3	270	0.00	29.690 
19:10	82.2	82.2	86.1	67	70.1	0	1	270	0.00	29.690 
19:15	82.2	82.2	86.1	67	70.1	1	4	270	0.00	29.682 
19:20	82.2	82.2	86.1	67	70.1	1	3	270	0.00	29.682 
19:25	82.4	82.4	86.5	67	70.3	1	3	270	0.00	29.682 
19:30	82.4	82.4	86.5	67	70.3	1	4	270	0.00	29.681 
19:35	82.2	82.2	86.4	68	70.6	1	3	270	0.00	29.681 
19:40	82.0	82.0	86.0	68	70.4	1	4	270	0.00	29.681 
19:45	81.8	81.8	85.9	69	70.6	1	3	270	0.00	29.691 
19:50	81.8	81.8	85.9	69	70.6	2	6	270	0.00	29.691 
19:55	81.8	81.8	85.9	69	70.6	1	4	270	0.00	29.691 
20:00	81.6	81.6	85.5	69	70.4	2	4	270	0.00	29.694 
20:05	81.4	81.4	85.1	69	70.2	0	2	270	0.00	29.694 
20:10	81.2	81.2	85.0	70	70.5	0	2	270	0.00	29.694 
20:15	81.1	81.1	85.0	71	70.8	1	2	270	0.00	29.691 
20:20	81.1	81.1	85.0	71	70.8	0	1	270	0.00	29.691 
20:25	81.1	81.1	85.0	71	70.8	0	1	270	0.00	29.691 
20:30	80.9	80.9	84.8	72	71.0	0	0	---	0.00	29.692 
20:35	80.7	80.7	84.4	72	70.8	0	0	---	0.00	29.692 
20:40	80.3	80.3	83.9	73	70.8	0	0	---	0.00	29.692 
20:45	80.1	80.1	83.5	73	70.6	0	1	270	0.00	29.692 
20:50	79.9	79.9	83.0	72	70.0	0	0	---	0.00	29.692 
20:55	79.8	79.8	82.9	72	69.9	0	0	---	0.00	29.692 
21:00	79.8	79.8	82.9	72	69.9	0	0	---	0.00	29.691 
21:05	79.6	79.6	82.5	72	69.8	0	0	---	0.00	29.691 
21:10	79.4	79.4	82.2	72	69.6	0	0	---	0.00	29.691 
21:15	79.2	79.2	82.0	73	69.8	0	0	---	0.00	29.674 
21:20	79.0	79.0	81.8	75	70.4	0	0	---	0.00	29.674 
21:25	78.8	78.8	81.5	76	70.6	0	0	---	0.00	29.674 
21:30	78.6	78.6	81.2	77	70.8	0	0	---	0.00	29.684 
21:35	78.5	78.5	81.1	77	70.7	0	0	---	0.00	29.684 
21:40	78.3	78.3	80.8	78	70.9	0	0	---	0.00	29.684 
21:45	78.1	78.1	80.4	78	70.7	0	0	---	0.00	29.684 
21:50	77.9	77.9	80.1	79	70.8	0	0	---	0.00	29.684 
21:55	77.7	77.7	79.8	80	71.0	0	0	---	0.00	29.684 
22:00	77.7	77.7	79.8	80	71.0	0	0	---	0.00	29.687 
22:05	77.6	77.6	79.6	80	70.9	0	0	---	0.00	29.687 
22:10	77.6	77.6	79.6	80	70.9	0	0	---	0.00	29.687 
22:15	77.6	77.6	79.6	81	71.3	0	0	---	0.00	29.686 
22:20	77.6	77.6	79.6	81	71.3	0	0	---	0.00	29.686 
22:25	77.4	77.4	79.2	81	71.1	0	0	---	0.00	29.686 
22:30	77.4	77.4	79.2	81	71.1	0	0	---	0.00	29.663 
22:35	77.4	77.4	79.2	81	71.1	0	0	---	0.00	29.663 
22:40	77.4	77.4	79.2	81	71.1	0	1	270	0.00	29.663 
22:45	77.4	77.4	79.2	81	71.1	0	1	270	0.00	29.672 
22:50	77.4	77.4	79.2	81	71.1	0	1	270	0.00	29.672 
22:55	77.6	77.6	79.6	81	71.3	0	2	270	0.00	29.672 
23:00	77.6	77.6	79.6	78	70.2	2	10	270	0.00	29.687 
23:05	77.4	77.4	79.3	77	69.6	1	4	270	0.00	29.687 
23:10	77.0	77.0	78.7	77	69.2	0	2	292	0.00	29.687 
23:15	76.8	76.8	78.4	77	69.0	1	5	292	0.00	29.686 
23:20	76.5	76.5	77.9	77	68.7	0	1	292	0.00	29.686 
23:25	76.3	76.3	77.7	76	68.2	0	1	292	0.00	29.686 
23:30	76.0	76.0	77.3	76	67.9	0	1	292	0.00	29.686 
23:35	75.8	75.8	77.0	76	67.7	0	1	292	0.00	29.686 
23:40	75.6	75.6	76.7	77	67.9	0	1	292	0.00	29.686 
23:45	75.4	75.4	76.3	78	68.0	0	1	292	0.00	29.689 
23:50	75.3	75.3	76.1	79	68.3	0	1	292	0.00	29.689 
23:55	74.9	74.9	74.9	79	67.9	0	0	---	0.00	29.689 

CoCoRaHS
IN-AL-39
A2 Web Hosting
Creative Commons License
GoDaddy
search engine by freefind advanced

loaded 2018-11-13 17:05:56 • last modified 2010-11-18 10:43:29
Privacy PolicyDisclaimer
• wx.awcolley.com is powered by PmWiki v.2002016 •
• all content (unless otherwise noted) © 2018 A W Colley